createdAt,value
2023-05-16T00:02:10.771Z,10.20
2023-05-16T00:04:37.683Z,10.20
2023-05-16T00:07:04.592Z,10.20
2023-05-16T00:09:31.249Z,10.20
2023-05-16T00:11:58.839Z,10.20
2023-05-16T00:14:26.525Z,10.20
2023-05-16T00:16:54.192Z,10.10
2023-05-16T00:19:20.859Z,10.20
2023-05-16T00:21:47.518Z,10.10
2023-05-16T00:24:14.157Z,10.10
2023-05-16T00:26:40.957Z,10.10
2023-05-16T00:29:07.566Z,10.10
2023-05-16T00:31:34.521Z,10.10
2023-05-16T00:34:01.185Z,10.10
2023-05-16T00:36:28.890Z,10.10
2023-05-16T00:38:56.368Z,10.10
2023-05-16T00:41:23.561Z,10.10
2023-05-16T00:43:50.201Z,10.10
2023-05-16T00:46:16.893Z,10.10
2023-05-16T00:48:43.735Z,10.10
2023-05-16T00:51:10.728Z,10.00
2023-05-16T00:53:37.440Z,10.10
2023-05-16T00:56:06.625Z,10.00
2023-05-16T00:58:33.932Z,10.00
2023-05-16T01:01:03.962Z,10.00
2023-05-16T01:03:31.505Z,10.00
2023-05-16T01:06:00.016Z,10.00
2023-05-16T01:08:26.988Z,10.00
2023-05-16T01:11:19.863Z,10.00
2023-05-16T01:14:00.813Z,10.00
2023-05-16T01:16:42.911Z,10.00
2023-05-16T01:19:47.437Z,10.00
2023-05-16T01:22:42.187Z,10.00
2023-05-16T01:25:31.715Z,10.10
2023-05-16T01:28:01.787Z,10.00
2023-05-16T01:30:35.369Z,10.00
2023-05-16T01:33:02.093Z,9.90
2023-05-16T01:35:29.654Z,9.90
2023-05-16T01:38:08.653Z,9.90
2023-05-16T01:40:38.695Z,10.00
2023-05-16T01:43:12.144Z,9.90
2023-05-16T01:45:47.613Z,9.90
2023-05-16T01:48:21.489Z,9.80
2023-05-16T01:50:54.173Z,9.70
2023-05-16T01:53:33.078Z,9.70
2023-05-16T01:56:02.166Z,9.70
2023-05-16T01:58:33.132Z,9.70
2023-05-16T02:01:04.331Z,9.70
2023-05-16T02:03:31.800Z,9.70
2023-05-16T02:05:58.884Z,9.70
2023-05-16T02:08:26.402Z,9.70
2023-05-16T02:10:53.412Z,9.70
2023-05-16T02:13:21.110Z,9.60
2023-05-16T02:15:47.707Z,9.60
2023-05-16T02:18:14.482Z,9.50
2023-05-16T02:20:42.945Z,9.60
2023-05-16T02:23:09.544Z,9.50
2023-05-16T02:25:36.218Z,9.50
2023-05-16T02:28:02.825Z,9.50
2023-05-16T02:30:29.729Z,9.40
2023-05-16T02:32:56.369Z,9.30
2023-05-16T02:35:23.189Z,9.20
2023-05-16T02:37:49.827Z,9.20
2023-05-16T02:40:17.213Z,9.20
2023-05-16T02:42:43.872Z,9.20
2023-05-16T02:45:10.863Z,9.20
2023-05-16T02:51:30.715Z,9.00
2023-05-16T02:53:59.485Z,8.90
2023-05-16T02:56:26.423Z,8.90
2023-05-16T02:58:54.478Z,8.90
2023-05-16T03:01:21.293Z,8.80
2023-05-16T03:03:48.096Z,8.80
2023-05-16T03:06:14.885Z,8.70
2023-05-16T03:08:41.568Z,8.70
2023-05-16T03:11:08.186Z,8.70
2023-05-16T03:13:34.831Z,8.70
2023-05-16T03:16:01.667Z,8.60
2023-05-16T03:18:28.411Z,8.60
2023-05-16T03:20:55.076Z,8.60
2023-05-16T03:23:24.083Z,8.60
2023-05-16T03:25:50.985Z,8.50
2023-05-16T03:28:20.855Z,8.50
2023-05-16T03:30:47.589Z,8.50
2023-05-16T03:33:14.243Z,8.50
2023-05-16T03:35:41.275Z,8.50
2023-05-16T03:38:08.075Z,8.50
2023-05-16T03:40:35.711Z,8.60
2023-05-16T03:43:02.377Z,8.70
2023-05-16T03:45:30.461Z,8.70
2023-05-16T03:47:57.829Z,8.70
2023-05-16T03:50:24.796Z,8.80
2023-05-16T03:52:52.702Z,8.80
2023-05-16T03:55:20.001Z,8.80
2023-05-16T03:57:47.734Z,8.80
2023-05-16T04:00:14.742Z,8.80
2023-05-16T04:02:41.671Z,8.80
2023-05-16T04:05:10.158Z,8.80
2023-05-16T04:07:38.156Z,8.80
2023-05-16T04:10:05.495Z,8.80
2023-05-16T04:12:32.406Z,8.80
2023-05-16T04:14:59.200Z,8.80
2023-05-16T04:17:25.960Z,8.80
2023-05-16T04:19:52.594Z,8.80
2023-05-16T04:22:24.220Z,8.80
2023-05-16T04:24:51.090Z,8.90
2023-05-16T04:27:17.882Z,8.90
2023-05-16T04:29:45.507Z,8.90
2023-05-16T04:32:12.367Z,8.90
2023-05-16T04:34:40.222Z,8.90
2023-05-16T04:37:08.132Z,8.90
2023-05-16T04:39:36.072Z,8.70
2023-05-16T04:42:03.231Z,8.70
2023-05-16T04:44:29.989Z,8.70
2023-05-16T04:46:57.033Z,8.70
2023-05-16T04:49:23.780Z,8.70
2023-05-16T04:51:50.508Z,8.70
2023-05-16T04:54:17.164Z,8.60
2023-05-16T04:56:43.860Z,8.60
2023-05-16T04:59:10.580Z,8.60
2023-05-16T05:01:37.259Z,8.60
2023-05-16T05:04:03.981Z,8.60
2023-05-16T05:06:31.470Z,8.70
2023-05-16T05:08:58.201Z,8.80
2023-05-16T05:11:24.843Z,8.80
2023-05-16T05:13:52.907Z,8.80
2023-05-16T05:16:19.861Z,8.80
2023-05-16T05:18:46.635Z,8.70
2023-05-16T05:21:13.684Z,8.70
2023-05-16T05:23:40.439Z,8.70
2023-05-16T05:26:07.249Z,8.70
2023-05-16T05:28:33.855Z,8.70
2023-05-16T05:31:00.516Z,8.60
2023-05-16T05:33:30.917Z,8.50
2023-05-16T05:35:57.783Z,8.50
2023-05-16T05:38:24.427Z,8.50
2023-05-16T05:40:51.125Z,8.40
2023-05-16T05:43:17.825Z,8.40
2023-05-16T05:45:44.921Z,8.40
2023-05-16T05:48:12.683Z,8.50
2023-05-16T05:50:39.586Z,8.50
2023-05-16T05:53:06.344Z,8.40
2023-05-16T05:55:33.018Z,8.40
2023-05-16T05:57:59.685Z,8.40
2023-05-16T06:00:26.470Z,8.50
2023-05-16T06:02:53.459Z,8.50
2023-05-16T06:05:20.412Z,8.50
2023-05-16T06:07:47.057Z,8.50
2023-05-16T06:10:13.668Z,8.60
2023-05-16T06:12:40.415Z,8.50
2023-05-16T06:15:07.813Z,8.50
2023-05-16T06:17:34.518Z,8.50
2023-05-16T06:20:01.678Z,8.50
2023-05-16T06:22:28.359Z,8.60
2023-05-16T06:24:54.970Z,8.60
2023-05-16T06:27:21.570Z,8.70
2023-05-16T06:29:48.220Z,8.60
2023-05-16T06:32:14.824Z,8.80
2023-05-16T06:34:41.483Z,8.90
2023-05-16T06:37:08.162Z,9.00
2023-05-16T06:39:34.765Z,9.10
2023-05-16T06:42:01.523Z,9.30
2023-05-16T06:44:32.012Z,9.50
2023-05-16T06:46:58.819Z,9.60
2023-05-16T06:49:25.763Z,9.40
2023-05-16T06:51:52.422Z,9.30
2023-05-16T06:54:19.105Z,9.20
2023-05-16T06:56:45.776Z,9.10
2023-05-16T06:59:12.512Z,8.90
2023-05-16T07:01:39.273Z,8.90
2023-05-16T07:04:06.290Z,9.00
2023-05-16T07:06:33.316Z,9.00
2023-05-16T07:08:59.997Z,9.20
2023-05-16T07:11:26.671Z,9.40
2023-05-16T07:13:53.494Z,9.60
2023-05-16T07:16:20.541Z,10.00
2023-05-16T07:18:47.382Z,10.40
2023-05-16T07:21:14.150Z,10.80
2023-05-16T07:23:41.362Z,10.80
2023-05-16T07:26:08.008Z,10.90
2023-05-16T07:28:34.665Z,11.00
2023-05-16T07:31:01.399Z,11.20
2023-05-16T07:33:28.030Z,10.90
2023-05-16T07:36:08.003Z,11.10
2023-05-16T07:38:41.474Z,11.30
2023-05-16T07:41:08.214Z,11.30
2023-05-16T07:43:35.523Z,11.30
2023-05-16T07:46:04.242Z,11.50
2023-05-16T07:48:31.149Z,11.40
2023-05-16T07:50:57.835Z,11.10
2023-05-16T07:53:24.780Z,10.80
2023-05-16T07:55:51.593Z,10.40
2023-05-16T07:58:18.286Z,10.10
2023-05-16T08:00:44.998Z,10.20
2023-05-16T08:03:11.965Z,10.60
2023-05-16T08:05:39.625Z,11.00
2023-05-16T08:08:06.388Z,11.30
2023-05-16T08:10:33.153Z,11.50
2023-05-16T08:12:59.854Z,11.60
2023-05-16T08:15:28.055Z,10.90
2023-05-16T08:17:58.979Z,10.70
2023-05-16T08:20:26.618Z,10.70
2023-05-16T08:22:54.044Z,11.00
2023-05-16T08:25:21.254Z,10.90
2023-05-16T08:27:50.453Z,11.40
2023-05-16T08:30:17.366Z,11.60
2023-05-16T08:32:44.042Z,11.40
2023-05-16T08:35:11.268Z,11.30
2023-05-16T08:37:38.056Z,11.00
2023-05-16T08:40:08.241Z,11.10
2023-05-16T08:42:35.315Z,11.40
2023-05-16T08:45:02.518Z,11.70
2023-05-16T08:47:32.220Z,11.80
2023-05-16T08:50:02.695Z,12.00
2023-05-16T08:52:31.701Z,12.20
2023-05-16T08:55:11.153Z,12.60
2023-05-16T08:57:39.053Z,12.50
2023-05-16T09:00:12.110Z,12.10
2023-05-16T09:02:43.250Z,12.20
2023-05-16T09:05:12.929Z,11.60
2023-05-16T09:07:40.560Z,11.40
2023-05-16T09:10:08.264Z,11.50
2023-05-16T09:12:35.073Z,12.20
2023-05-16T09:15:07.001Z,12.80
2023-05-16T09:17:39.782Z,13.30
2023-05-16T09:20:09.946Z,13.10
2023-05-16T09:22:56.926Z,13.10
2023-05-16T09:27:59.180Z,12.00
2023-05-16T09:30:34.737Z,11.90
2023-05-16T09:33:02.078Z,12.40
2023-05-16T09:37:58.504Z,13.00
2023-05-16T09:40:25.356Z,13.80
2023-05-16T09:43:05.784Z,14.00
2023-05-16T09:45:34.092Z,13.80
2023-05-16T09:48:09.404Z,13.20
2023-05-16T09:50:37.588Z,13.30
2023-05-16T09:53:04.788Z,13.80
2023-05-16T09:55:32.172Z,14.20
2023-05-16T09:57:58.907Z,14.30
2023-05-16T10:00:33.356Z,14.20
2023-05-16T10:03:04.730Z,14.70
2023-05-16T10:05:33.528Z,14.90
2023-05-16T10:08:03.790Z,14.60
2023-05-16T10:10:31.398Z,14.50
2023-05-16T10:13:00.158Z,14.30
2023-05-16T10:15:29.265Z,13.80
2023-05-16T10:17:59.872Z,13.70
2023-05-16T10:20:27.375Z,14.70
2023-05-16T10:22:56.564Z,15.00
2023-05-16T10:25:31.773Z,14.20
2023-05-16T10:27:59.910Z,13.90
2023-05-16T10:30:27.173Z,13.80
2023-05-16T10:32:54.789Z,13.30
2023-05-16T10:35:22.017Z,12.50
2023-05-16T10:37:50.432Z,12.10
2023-05-16T10:40:18.280Z,11.90
2023-05-16T10:42:57.720Z,12.20
2023-05-16T10:45:24.753Z,13.70
2023-05-16T10:47:53.184Z,15.00
2023-05-16T10:50:33.843Z,15.40
2023-05-16T10:53:36.121Z,15.30
2023-05-16T10:56:03.238Z,14.70
2023-05-16T10:58:38.861Z,13.40
2023-05-16T11:01:24.489Z,12.80
2023-05-16T11:03:57.307Z,12.00
2023-05-16T11:06:35.814Z,11.70
2023-05-16T11:09:07.014Z,11.70
2023-05-16T11:11:46.443Z,11.90
2023-05-16T11:14:25.673Z,12.10
2023-05-16T11:16:59.849Z,12.70
2023-05-16T11:19:41.498Z,13.60
2023-05-16T11:22:20.917Z,14.30
2023-05-16T11:24:55.065Z,14.90
2023-05-16T11:27:23.424Z,14.70
2023-05-16T11:29:50.460Z,14.10
2023-05-16T11:32:21.621Z,14.00
2023-05-16T11:34:48.884Z,14.10
2023-05-16T11:37:19.561Z,15.10
2023-05-16T11:39:46.848Z,15.30
2023-05-16T11:42:13.547Z,15.20
2023-05-16T11:44:41.033Z,15.30
2023-05-16T11:47:08.608Z,15.70
2023-05-16T11:49:35.604Z,15.20
2023-05-16T11:52:03.502Z,16.10
2023-05-16T11:54:31.574Z,16.40
2023-05-16T11:56:59.679Z,17.20
2023-05-16T11:59:27.006Z,17.70
2023-05-16T12:01:53.763Z,17.20
2023-05-16T12:04:20.757Z,16.10
2023-05-16T12:06:59.471Z,15.50
2023-05-16T12:09:26.489Z,14.80
2023-05-16T12:11:53.374Z,14.20
2023-05-16T12:14:20.772Z,13.90
2023-05-16T12:16:49.268Z,13.70
2023-05-16T12:19:16.676Z,13.50
2023-05-16T12:21:43.523Z,14.50
2023-05-16T12:24:12.137Z,15.10
2023-05-16T12:26:40.439Z,16.10
2023-05-16T12:29:07.647Z,15.60
2023-05-16T12:31:41.486Z,16.10
2023-05-16T12:34:20.436Z,17.00
2023-05-16T12:36:51.628Z,17.90
2023-05-16T12:39:18.293Z,17.40
2023-05-16T12:41:44.972Z,17.40
2023-05-16T12:44:19.709Z,17.90
2023-05-16T12:46:49.717Z,16.80
2023-05-16T12:49:19.557Z,15.70
2023-05-16T12:51:54.065Z,15.00
2023-05-16T12:54:22.875Z,14.80
2023-05-16T12:56:49.797Z,14.20
2023-05-16T12:59:16.663Z,13.80
2023-05-16T13:01:44.367Z,13.40
2023-05-16T13:04:16.586Z,13.00
2023-05-16T13:06:57.815Z,12.90
2023-05-16T13:09:29.102Z,12.60
2023-05-16T13:11:57.008Z,12.40
2023-05-16T13:14:23.747Z,12.60
2023-05-16T13:16:50.411Z,12.80
2023-05-16T13:19:17.300Z,13.20
2023-05-16T13:21:44.105Z,13.90
2023-05-16T13:24:10.910Z,14.70
2023-05-16T13:26:37.598Z,15.00
2023-05-16T13:29:04.267Z,15.00
2023-05-16T13:31:31.120Z,15.60
2023-05-16T13:33:58.897Z,16.00
2023-05-16T13:36:25.704Z,16.50
2023-05-16T13:38:52.400Z,16.50
2023-05-16T13:41:19.588Z,16.40
2023-05-16T13:43:46.276Z,15.50
2023-05-16T13:46:12.996Z,15.40
2023-05-16T13:48:39.698Z,15.70
2023-05-16T13:51:06.674Z,16.00
2023-05-16T13:53:33.336Z,16.30
2023-05-16T13:56:00.072Z,16.50
2023-05-16T13:58:27.250Z,16.50
2023-05-16T14:00:54.318Z,16.50
2023-05-16T14:03:21.332Z,16.50
2023-05-16T14:05:48.340Z,15.70
2023-05-16T14:08:14.985Z,16.10
2023-05-16T14:10:41.650Z,15.10
2023-05-16T14:13:08.337Z,14.70
2023-05-16T14:15:35.025Z,14.90
2023-05-16T14:18:02.501Z,15.60
2023-05-16T14:20:29.227Z,15.10
2023-05-16T14:22:56.786Z,14.50
2023-05-16T14:25:23.455Z,13.50
2023-05-16T14:27:51.004Z,13.00
2023-05-16T14:30:17.727Z,12.80
2023-05-16T14:32:44.542Z,12.80
2023-05-16T14:35:11.251Z,12.90
2023-05-16T14:37:37.902Z,12.90
2023-05-16T14:40:06.103Z,13.10
2023-05-16T14:42:32.864Z,13.10
2023-05-16T14:44:59.823Z,13.40
2023-05-16T14:47:27.414Z,13.50
2023-05-16T14:49:54.400Z,13.50
2023-05-16T14:52:21.941Z,13.40
2023-05-16T14:54:48.735Z,13.50
2023-05-16T14:57:15.657Z,13.90
2023-05-16T14:59:42.299Z,14.00
2023-05-16T15:02:09.062Z,14.10
2023-05-16T15:04:35.882Z,14.20
2023-05-16T15:07:02.600Z,13.80
2023-05-16T15:09:29.272Z,14.60
2023-05-16T15:11:56.154Z,16.10
2023-05-16T15:14:22.843Z,15.80
2023-05-16T15:16:49.642Z,15.20
2023-05-16T15:19:16.423Z,15.40
2023-05-16T15:21:43.064Z,16.50
2023-05-16T15:24:09.886Z,16.50
2023-05-16T15:26:36.657Z,16.00
2023-05-16T15:29:03.365Z,15.80
2023-05-16T15:31:32.017Z,15.20
2023-05-16T15:33:58.772Z,16.00
2023-05-16T15:36:25.706Z,16.10
2023-05-16T15:38:52.929Z,15.50
2023-05-16T15:41:37.115Z,14.90
2023-05-16T15:44:07.478Z,14.60
2023-05-16T15:46:34.380Z,14.50
2023-05-16T15:49:01.227Z,14.30
2023-05-16T15:51:27.887Z,14.00
2023-05-16T15:53:54.574Z,14.00
2023-05-16T15:56:21.777Z,13.30
2023-05-16T15:58:48.591Z,13.50
2023-05-16T16:01:16.453Z,14.00
2023-05-16T16:03:43.357Z,14.10
2023-05-16T16:06:10.553Z,14.10
2023-05-16T16:08:37.215Z,14.80
2023-05-16T16:11:04.855Z,15.90
2023-05-16T16:13:32.324Z,16.20
2023-05-16T16:15:59.032Z,15.70
2023-05-16T16:18:25.836Z,14.70
2023-05-16T16:20:53.238Z,14.30
2023-05-16T16:23:20.016Z,13.80
2023-05-16T16:25:46.857Z,13.70
2023-05-16T16:28:13.548Z,13.50
2023-05-16T16:30:40.645Z,13.60
2023-05-16T16:33:07.641Z,13.50
2023-05-16T16:35:34.544Z,14.50
2023-05-16T16:38:06.814Z,15.60
2023-05-16T16:40:34.611Z,15.50
2023-05-16T16:43:01.523Z,14.40
2023-05-16T16:45:28.591Z,13.90
2023-05-16T16:47:55.610Z,13.60
2023-05-16T16:50:22.405Z,13.40
2023-05-16T16:52:49.069Z,13.40
2023-05-16T16:55:16.129Z,13.50
2023-05-16T16:57:42.923Z,13.40
2023-05-16T17:00:11.476Z,13.40
2023-05-16T17:02:38.616Z,13.70
2023-05-16T17:05:06.531Z,13.80
2023-05-16T17:07:33.621Z,14.40
2023-05-16T17:10:01.084Z,14.60
2023-05-16T17:12:28.738Z,14.50
2023-05-16T17:14:57.370Z,13.80
2023-05-16T17:17:26.097Z,13.50
2023-05-16T17:19:53.045Z,13.10
2023-05-16T17:22:21.968Z,13.00
2023-05-16T17:24:48.657Z,12.90
2023-05-16T17:27:15.718Z,12.70
2023-05-16T17:29:42.468Z,12.60
2023-05-16T17:32:09.125Z,12.50
2023-05-16T17:34:35.858Z,12.40
2023-05-16T17:37:03.272Z,12.30
2023-05-16T17:39:31.526Z,12.10
2023-05-16T17:41:59.284Z,12.10
2023-05-16T17:44:26.047Z,12.10
2023-05-16T17:46:53.591Z,12.00
2023-05-16T17:49:21.415Z,12.00
2023-05-16T17:51:55.078Z,12.00
2023-05-16T17:54:22.387Z,12.00
2023-05-16T17:56:50.736Z,11.80
2023-05-16T17:59:17.888Z,11.70
2023-05-16T18:01:44.742Z,11.70
2023-05-16T18:04:11.644Z,11.60
2023-05-16T18:06:38.854Z,11.50
2023-05-16T18:09:07.325Z,11.50
2023-05-16T18:11:34.812Z,11.40
2023-05-16T18:14:02.089Z,11.30
2023-05-16T18:16:29.849Z,11.30
2023-05-16T18:18:57.915Z,11.20
2023-05-16T18:21:24.789Z,11.10
2023-05-16T18:23:51.723Z,11.10
2023-05-16T18:26:19.278Z,11.10
2023-05-16T18:28:46.406Z,11.00
2023-05-16T18:31:13.210Z,11.10
2023-05-16T18:33:39.941Z,11.00
2023-05-16T18:36:06.990Z,11.00
2023-05-16T18:38:33.990Z,11.00
2023-05-16T18:41:01.014Z,10.90
2023-05-16T18:43:27.884Z,10.90
2023-05-16T18:45:54.617Z,10.90
2023-05-16T18:48:21.427Z,10.90
2023-05-16T18:50:48.182Z,10.90
2023-05-16T18:53:14.911Z,10.90
2023-05-16T18:55:41.558Z,10.80
2023-05-16T18:58:08.291Z,10.80
2023-05-16T19:00:35.040Z,10.80
2023-05-16T19:03:01.841Z,10.70
2023-05-16T19:05:28.855Z,10.70
2023-05-16T19:07:55.758Z,10.70
2023-05-16T19:10:24.952Z,10.70
2023-05-16T19:12:51.700Z,10.70
2023-05-16T19:15:18.611Z,10.70
2023-05-16T19:17:45.554Z,10.60
2023-05-16T19:20:12.342Z,10.60
2023-05-16T19:22:39.006Z,10.50
2023-05-16T19:25:06.636Z,10.50
2023-05-16T19:27:33.395Z,10.40
2023-05-16T19:30:00.120Z,10.30
2023-05-16T19:32:26.869Z,10.10
2023-05-16T19:34:53.715Z,10.10
2023-05-16T19:37:20.443Z,10.10
2023-05-16T19:39:47.187Z,10.00
2023-05-16T19:42:13.841Z,10.00
2023-05-16T19:44:40.585Z,9.90
2023-05-16T19:47:07.246Z,9.90
2023-05-16T19:49:33.937Z,10.00
2023-05-16T19:52:01.567Z,10.00
2023-05-16T19:54:28.252Z,10.10
2023-05-16T19:56:55.954Z,10.10
2023-05-16T19:59:25.009Z,10.10
2023-05-16T20:01:51.958Z,10.10
2023-05-16T20:04:18.781Z,10.10
2023-05-16T20:06:45.895Z,10.10
2023-05-16T20:09:12.973Z,10.00
2023-05-16T20:11:39.857Z,10.00
2023-05-16T20:14:06.575Z,10.10
2023-05-16T20:16:33.276Z,10.00
2023-05-16T20:19:00.103Z,10.00
2023-05-16T20:21:26.877Z,10.00
2023-05-16T20:23:53.528Z,10.00
2023-05-16T20:26:21.503Z,10.00
2023-05-16T20:28:48.220Z,10.00
2023-05-16T20:31:14.894Z,10.00
2023-05-16T20:33:41.668Z,9.90
2023-05-16T20:36:08.346Z,9.90
2023-05-16T20:38:34.982Z,9.90
2023-05-16T20:41:04.489Z,9.90
2023-05-16T20:43:31.173Z,9.90
2023-05-16T20:45:57.787Z,9.90
2023-05-16T20:48:24.578Z,9.80
2023-05-16T20:50:51.797Z,9.80
2023-05-16T20:53:18.469Z,9.80
2023-05-16T20:55:45.112Z,9.80
2023-05-16T20:58:12.011Z,9.70
2023-05-16T21:00:38.728Z,9.60
2023-05-16T21:03:05.527Z,9.50
2023-05-16T21:05:33.462Z,9.40
2023-05-16T21:08:00.208Z,9.20
2023-05-16T21:10:26.919Z,9.10
2023-05-16T21:12:53.603Z,9.00
2023-05-16T21:15:23.079Z,8.90
2023-05-16T21:17:50.300Z,8.80
2023-05-16T21:20:17.052Z,8.80
2023-05-16T21:22:43.849Z,8.80
2023-05-16T21:25:10.570Z,8.70
2023-05-16T21:27:37.332Z,8.70
2023-05-16T21:30:04.387Z,8.60
2023-05-16T21:32:32.551Z,8.60
2023-05-16T21:35:00.963Z,8.50
2023-05-16T21:37:27.722Z,8.50
2023-05-16T21:39:54.364Z,8.40
2023-05-16T21:42:21.199Z,8.40
2023-05-16T21:44:47.864Z,8.30
2023-05-16T21:47:14.527Z,8.30
2023-05-16T21:49:41.220Z,8.30
2023-05-16T21:52:07.968Z,8.20
2023-05-16T21:54:34.823Z,8.20
2023-05-16T21:57:01.503Z,8.30
2023-05-16T21:59:28.217Z,8.20
2023-05-16T22:01:54.855Z,8.20
2023-05-16T22:04:21.692Z,8.10
2023-05-16T22:06:48.428Z,8.10
2023-05-16T22:09:15.366Z,8.00
2023-05-16T22:11:42.167Z,8.10
2023-05-16T22:14:08.913Z,8.00
2023-05-16T22:16:35.678Z,8.00
2023-05-16T22:19:03.228Z,8.00
2023-05-16T22:21:29.922Z,7.90
2023-05-16T22:23:56.573Z,7.90
2023-05-16T22:26:23.616Z,7.90
2023-05-16T22:28:50.274Z,7.80
2023-05-16T22:31:16.948Z,7.80
2023-05-16T22:33:43.839Z,7.80
2023-05-16T22:36:10.570Z,7.90
2023-05-16T22:38:37.361Z,7.90
2023-05-16T22:41:04.214Z,7.90
2023-05-16T22:43:30.852Z,7.90
2023-05-16T22:45:57.578Z,7.90
2023-05-16T22:48:24.293Z,8.00
2023-05-16T22:50:50.924Z,8.00
2023-05-16T22:53:17.594Z,8.10
2023-05-16T22:55:44.235Z,8.00
2023-05-16T22:58:10.884Z,8.10
2023-05-16T23:00:37.560Z,8.10
2023-05-16T23:03:04.490Z,8.00
2023-05-16T23:05:31.357Z,8.10
2023-05-16T23:07:58.051Z,8.10
2023-05-16T23:10:24.719Z,8.10
2023-05-16T23:12:51.374Z,8.20
2023-05-16T23:15:18.124Z,8.20
2023-05-16T23:17:44.903Z,8.30
2023-05-16T23:20:11.818Z,8.20
2023-05-16T23:22:38.457Z,8.20
2023-05-16T23:25:06.141Z,8.20
2023-05-16T23:27:32.802Z,8.20
2023-05-16T23:29:59.772Z,8.30
2023-05-16T23:32:26.448Z,8.30
2023-05-16T23:34:53.223Z,8.20
2023-05-16T23:37:19.865Z,8.20
2023-05-16T23:39:46.538Z,8.10
2023-05-16T23:42:13.182Z,8.00
2023-05-16T23:44:41.750Z,7.90
2023-05-16T23:47:08.621Z,7.90
2023-05-16T23:49:35.299Z,7.90
2023-05-16T23:52:01.997Z,7.80
2023-05-16T23:54:28.688Z,7.70
2023-05-16T23:56:55.377Z,7.70
2023-05-16T23:59:22.194Z,7.60
